createdAt,value
2019-02-11T00:00:26.661Z,0.90
2019-02-11T00:02:54.906Z,1.10
2019-02-11T00:05:23.482Z,0.90
2019-02-11T00:07:51.725Z,1.00
2019-02-11T00:10:20.261Z,1.30
2019-02-11T00:12:48.823Z,1.00
2019-02-11T00:15:17.549Z,1.20
2019-02-11T00:17:45.862Z,1.00
2019-02-11T00:20:14.499Z,1.10
2019-02-11T00:22:43.176Z,1.03
2019-02-11T00:25:11.845Z,1.10
2019-02-11T00:27:40.085Z,1.20
2019-02-11T00:30:10.289Z,1.37
2019-02-11T00:32:38.625Z,1.30
2019-02-11T00:35:07.568Z,1.23
2019-02-11T00:37:36.095Z,1.23
2019-02-11T00:40:04.375Z,1.30
2019-02-11T00:42:32.624Z,1.13
2019-02-11T00:45:00.925Z,1.00
2019-02-11T00:47:29.213Z,1.20
2019-02-11T00:49:57.488Z,1.33
2019-02-11T00:52:25.810Z,1.10
2019-02-11T00:54:54.439Z,1.33
2019-02-11T00:57:23.034Z,1.20
2019-02-11T00:59:51.604Z,1.40
2019-02-11T01:02:19.828Z,1.53
2019-02-11T01:04:48.071Z,1.57
2019-02-11T01:07:16.348Z,1.07
2019-02-11T01:09:44.590Z,1.30
2019-02-11T01:12:13.229Z,1.50
2019-02-11T01:14:41.509Z,1.10
2019-02-11T01:17:09.782Z,1.20
2019-02-11T01:19:38.036Z,1.03
2019-02-11T01:22:06.307Z,1.20
2019-02-11T01:24:34.547Z,1.20
2019-02-11T01:27:03.145Z,1.20
2019-02-11T01:29:34.071Z,1.23
2019-02-11T01:32:02.686Z,1.10
2019-02-11T01:34:30.966Z,1.10
2019-02-11T01:36:59.240Z,1.20
2019-02-11T01:39:27.489Z,1.20
2019-02-11T01:41:56.113Z,1.03
2019-02-11T01:44:24.439Z,1.40
2019-02-11T01:46:53.082Z,1.20
2019-02-11T01:49:21.321Z,1.37
2019-02-11T01:51:49.939Z,1.13
2019-02-11T01:54:18.218Z,1.43
2019-02-11T01:56:46.549Z,1.23
2019-02-11T01:59:14.798Z,1.00
2019-02-11T02:01:43.073Z,1.20
2019-02-11T02:04:11.318Z,1.03
2019-02-11T02:06:39.971Z,1.30
2019-02-11T02:09:08.555Z,1.20
2019-02-11T02:11:36.838Z,1.10
2019-02-11T02:14:05.091Z,1.03
2019-02-11T02:16:33.685Z,0.93
2019-02-11T02:19:01.937Z,0.90
2019-02-11T02:21:30.551Z,1.00
2019-02-11T02:23:58.810Z,0.90
2019-02-11T02:26:27.062Z,0.97
2019-02-11T02:28:55.314Z,1.10
2019-02-11T02:31:23.594Z,1.10
2019-02-11T02:33:52.089Z,1.10
2019-02-11T02:36:20.353Z,1.27
2019-02-11T02:38:48.585Z,1.17
2019-02-11T02:41:16.911Z,1.20
2019-02-11T02:43:54.903Z,1.10
2019-02-11T02:46:15.200Z,1.20
2019-02-11T02:48:43.505Z,1.30
2019-02-11T02:51:12.133Z,1.10
2019-02-11T02:53:40.459Z,1.60
2019-02-11T02:56:08.752Z,1.03
2019-02-11T02:58:36.997Z,1.40
2019-02-11T03:01:05.349Z,1.27
2019-02-11T03:03:33.623Z,1.40
2019-02-11T03:06:01.874Z,1.30
2019-02-11T03:08:30.133Z,1.30
2019-02-11T03:10:58.384Z,1.03
2019-02-11T03:13:26.669Z,1.27
2019-02-11T03:15:54.974Z,1.07
2019-02-11T03:18:23.582Z,0.90
2019-02-11T03:20:51.843Z,1.00
2019-02-11T03:23:20.550Z,0.90
2019-02-11T03:25:48.839Z,0.70
2019-02-11T03:28:17.172Z,0.80
2019-02-11T03:30:45.476Z,0.80
2019-02-11T03:33:14.041Z,0.70
2019-02-11T03:35:42.646Z,0.80
2019-02-11T03:38:10.920Z,0.80
2019-02-11T03:40:39.188Z,0.80
2019-02-11T03:43:07.437Z,0.70
2019-02-11T03:45:35.710Z,0.63
2019-02-11T03:48:03.952Z,0.80
2019-02-11T03:50:32.584Z,0.70
2019-02-11T03:53:01.191Z,0.60
2019-02-11T03:55:29.464Z,0.60
2019-02-11T03:57:58.031Z,0.80
2019-02-11T04:00:26.711Z,0.80
2019-02-11T04:02:55.163Z,0.70
2019-02-11T04:05:23.773Z,0.70
2019-02-11T04:07:52.061Z,0.80
2019-02-11T04:10:20.295Z,0.83
2019-02-11T04:12:48.597Z,1.10
2019-02-11T04:15:16.855Z,0.80
2019-02-11T04:17:45.462Z,0.80
2019-02-11T04:20:14.002Z,0.80
2019-02-11T04:22:42.273Z,0.90
2019-02-11T04:25:10.522Z,0.77
2019-02-11T04:27:38.818Z,0.90
2019-02-11T04:30:09.622Z,1.00
2019-02-11T04:32:38.039Z,1.00
2019-02-11T04:35:06.524Z,1.17
2019-02-11T04:37:34.769Z,1.00
2019-02-11T04:40:03.421Z,1.00
2019-02-11T04:42:31.928Z,1.37
2019-02-11T04:45:00.574Z,1.00
2019-02-11T04:47:28.867Z,1.20
2019-02-11T04:49:57.466Z,1.47
2019-02-11T04:52:25.698Z,1.30
2019-02-11T04:54:53.955Z,0.90
2019-02-11T04:57:22.497Z,1.30
2019-02-11T04:59:50.783Z,1.40
2019-02-11T05:02:19.028Z,1.27
2019-02-11T05:04:47.393Z,1.40
2019-02-11T05:07:15.626Z,1.40
2019-02-11T05:09:43.905Z,1.37
2019-02-11T05:12:12.176Z,1.40
2019-02-11T05:14:44.021Z,1.40
2019-02-11T05:17:11.453Z,1.50
2019-02-11T05:19:39.745Z,1.30
2019-02-11T05:22:08.313Z,1.53
2019-02-11T05:24:36.602Z,1.47
2019-02-11T05:27:04.874Z,1.60
2019-02-11T05:29:33.141Z,1.60
2019-02-11T05:32:01.390Z,1.50
2019-02-11T05:34:29.661Z,1.60
2019-02-11T05:36:57.905Z,1.80
2019-02-11T05:39:26.191Z,1.80
2019-02-11T05:41:54.431Z,1.90
2019-02-11T05:44:22.718Z,2.10
2019-02-11T05:46:51.222Z,2.27
2019-02-11T05:49:19.511Z,2.30
2019-02-11T05:51:49.851Z,2.10
2019-02-11T05:54:18.140Z,2.50
2019-02-11T05:56:46.394Z,2.20
2019-02-11T05:59:14.720Z,2.33
2019-02-11T06:01:42.974Z,2.67
2019-02-11T06:04:11.370Z,2.60
2019-02-11T06:06:39.962Z,2.77
2019-02-11T06:09:08.535Z,2.83
2019-02-11T06:11:37.123Z,3.00
2019-02-11T06:14:05.668Z,3.10
2019-02-11T06:16:34.189Z,2.90
2019-02-11T06:19:02.498Z,2.87
2019-02-11T06:21:30.771Z,2.83
2019-02-11T06:23:59.431Z,3.17
2019-02-11T06:26:28.040Z,3.03
2019-02-11T06:28:56.554Z,3.13
2019-02-11T06:31:24.836Z,3.10
2019-02-11T06:33:53.132Z,3.50
2019-02-11T06:36:21.390Z,3.50
2019-02-11T06:38:49.690Z,2.93
2019-02-11T06:41:19.540Z,3.37
2019-02-11T06:43:47.795Z,3.40
2019-02-11T06:46:16.157Z,3.23
2019-02-11T06:48:44.388Z,3.33
2019-02-11T06:51:12.688Z,3.33
2019-02-11T06:53:40.995Z,3.40
2019-02-11T06:56:09.273Z,3.70
2019-02-11T06:58:37.513Z,3.43
2019-02-11T07:01:06.134Z,3.37
2019-02-11T07:03:34.802Z,3.37
2019-02-11T07:06:03.119Z,3.20
2019-02-11T07:08:31.445Z,3.47
2019-02-11T07:10:59.749Z,3.00
2019-02-11T07:13:27.992Z,3.43
2019-02-11T07:15:56.572Z,3.20
2019-02-11T07:18:25.024Z,3.40
2019-02-11T07:20:53.293Z,3.67
2019-02-11T07:23:21.827Z,3.73
2019-02-11T07:25:50.126Z,3.27
2019-02-11T07:28:21.091Z,3.60
2019-02-11T07:30:49.652Z,3.20
2019-02-11T07:33:18.248Z,3.43
2019-02-11T07:35:46.939Z,2.67
2019-02-11T07:38:15.455Z,3.27
2019-02-11T07:40:43.723Z,3.17
2019-02-11T07:43:13.598Z,3.00
2019-02-11T07:45:46.530Z,3.00
2019-02-11T07:48:14.804Z,3.07
2019-02-11T07:50:43.601Z,2.90
2019-02-11T07:53:11.863Z,3.17
2019-02-11T07:55:40.580Z,3.10
2019-02-11T07:58:08.910Z,3.50
2019-02-11T08:00:37.279Z,3.30
2019-02-11T08:03:05.623Z,3.33
2019-02-11T08:05:34.324Z,7.50
2019-02-11T08:08:02.578Z,3.77
2019-02-11T08:10:30.860Z,3.53
2019-02-11T08:13:00.466Z,2.97
2019-02-11T08:15:28.821Z,3.63
2019-02-11T08:17:59.967Z,2.90
2019-02-11T08:20:29.882Z,3.30
2019-02-11T08:22:58.435Z,3.03
2019-02-11T08:25:27.118Z,2.90
2019-02-11T08:27:55.874Z,2.43
2019-02-11T08:30:24.455Z,2.97
2019-02-11T08:32:52.790Z,2.90
2019-02-11T08:35:21.177Z,3.00
2019-02-11T08:37:49.439Z,2.70
2019-02-11T08:40:17.772Z,3.27
2019-02-11T08:42:46.043Z,2.60
2019-02-11T08:45:14.385Z,2.93
2019-02-11T08:47:42.733Z,3.00
2019-02-11T08:50:11.325Z,3.00
2019-02-11T08:52:39.859Z,7.57
2019-02-11T08:55:08.816Z,2.70
2019-02-11T08:57:37.122Z,3.20
2019-02-11T09:00:10.855Z,2.90
2019-02-11T09:02:39.557Z,2.70
2019-02-11T09:05:08.106Z,2.60
2019-02-11T09:07:36.427Z,2.80
2019-02-11T09:10:07.854Z,2.60
2019-02-11T09:12:36.108Z,2.47
2019-02-11T09:15:07.662Z,2.50
2019-02-11T09:17:36.186Z,2.30
2019-02-11T09:20:07.312Z,2.53
2019-02-11T09:22:35.652Z,2.70
2019-02-11T09:25:04.867Z,2.67
2019-02-11T09:27:33.106Z,2.50
2019-02-11T09:30:01.393Z,1.97
2019-02-11T09:32:29.675Z,2.20
2019-02-11T09:34:57.969Z,2.80
2019-02-11T09:37:26.547Z,2.43
2019-02-11T09:39:54.932Z,2.20
2019-02-11T09:42:23.245Z,2.27
2019-02-11T09:44:51.592Z,2.50
2019-02-11T09:47:19.906Z,2.30
2019-02-11T09:49:53.921Z,2.10
2019-02-11T09:52:22.213Z,2.30
2019-02-11T09:54:50.506Z,2.23
2019-02-11T09:57:18.906Z,2.47
2019-02-11T09:59:47.666Z,2.30
2019-02-11T10:02:15.939Z,1.90
2019-02-11T10:04:44.531Z,2.43
2019-02-11T10:07:12.860Z,1.93
2019-02-11T10:09:41.120Z,2.60
2019-02-11T10:12:09.749Z,2.30
2019-02-11T10:14:38.188Z,2.03
2019-02-11T10:17:06.667Z,2.40
2019-02-11T10:19:35.316Z,2.17
2019-02-11T10:22:04.761Z,2.47
2019-02-11T10:24:33.321Z,2.23
2019-02-11T10:27:01.570Z,2.37
2019-02-11T10:29:29.818Z,2.20
2019-02-11T10:31:58.093Z,2.33
2019-02-11T10:34:26.350Z,2.00
2019-02-11T10:36:54.661Z,2.00
2019-02-11T10:39:23.007Z,1.93
2019-02-11T10:41:51.367Z,2.30
2019-02-11T10:44:19.718Z,2.30
2019-02-11T10:46:48.030Z,2.20
2019-02-11T10:49:16.510Z,2.10
2019-02-11T10:51:44.841Z,2.50
2019-02-11T10:54:13.122Z,1.90
2019-02-11T10:56:41.713Z,2.17
2019-02-11T10:59:09.956Z,2.30
2019-02-11T11:01:38.510Z,2.20
2019-02-11T11:04:07.006Z,1.70
2019-02-11T11:06:35.370Z,1.77
2019-02-11T11:09:04.840Z,2.20
2019-02-11T11:11:33.147Z,2.97
2019-02-11T11:14:01.722Z,2.83
2019-02-11T11:16:30.070Z,2.50
2019-02-11T11:18:58.305Z,2.40
2019-02-11T11:21:26.585Z,2.50
2019-02-11T11:23:55.104Z,2.67
2019-02-11T11:26:23.662Z,3.12
2019-02-11T11:28:51.905Z,2.70
2019-02-11T11:31:20.515Z,2.52
2019-02-11T11:33:48.749Z,2.30
2019-02-11T11:36:17.333Z,2.47
2019-02-11T11:38:45.645Z,1.87
2019-02-11T11:41:13.916Z,2.00
2019-02-11T11:43:42.534Z,2.00
2019-02-11T11:46:11.139Z,2.30
2019-02-11T11:48:39.397Z,2.03
2019-02-11T11:51:07.971Z,2.03
2019-02-11T11:53:39.156Z,1.67
2019-02-11T11:56:07.448Z,2.03
2019-02-11T11:58:35.751Z,1.93
2019-02-11T12:01:04.037Z,1.97
2019-02-11T12:03:32.350Z,1.80
2019-02-11T12:06:00.755Z,1.80
2019-02-11T12:08:29.004Z,1.93
2019-02-11T12:10:57.283Z,1.80
2019-02-11T12:13:25.602Z,1.90
2019-02-11T12:15:53.883Z,1.80
2019-02-11T12:18:22.558Z,2.10
2019-02-11T12:20:50.847Z,1.97
2019-02-11T12:23:19.268Z,1.90
2019-02-11T12:25:47.627Z,2.07
2019-02-11T12:28:15.887Z,1.60
2019-02-11T12:30:44.252Z,1.40
2019-02-11T12:33:12.620Z,1.40
2019-02-11T12:35:40.966Z,1.53
2019-02-11T12:38:09.283Z,1.37
2019-02-11T12:40:37.591Z,1.53
2019-02-11T12:43:05.947Z,1.63
2019-02-11T12:45:34.463Z,1.93
2019-02-11T12:48:03.140Z,1.83
2019-02-11T12:50:31.379Z,1.40
2019-02-11T12:52:59.688Z,1.70
2019-02-11T12:55:27.970Z,1.47
2019-02-11T12:57:56.337Z,1.60
2019-02-11T13:00:24.808Z,1.67
2019-02-11T13:02:53.137Z,1.47
2019-02-11T13:05:23.401Z,1.40
2019-02-11T13:07:51.374Z,1.83
2019-02-11T13:10:20.836Z,2.17
2019-02-11T13:12:49.224Z,1.60
2019-02-11T13:15:41.777Z,1.33
2019-02-11T13:17:48.826Z,1.43
2019-02-11T13:20:17.998Z,1.80
2019-02-11T13:22:46.448Z,1.60
2019-02-11T13:25:15.736Z,1.40
2019-02-11T13:27:44.401Z,1.60
2019-02-11T13:30:21.238Z,1.67
2019-02-11T13:32:49.589Z,1.70
2019-02-11T13:35:17.930Z,2.10
2019-02-11T13:37:46.262Z,1.50
2019-02-11T13:40:14.603Z,1.30
2019-02-11T13:42:42.976Z,1.30
2019-02-11T13:45:16.672Z,1.57
2019-02-11T13:47:53.520Z,1.33
2019-02-11T13:50:23.638Z,1.30
2019-02-11T13:52:52.177Z,1.40
2019-02-11T13:55:20.664Z,1.70
2019-02-11T13:57:48.984Z,1.40
2019-02-11T14:00:21.555Z,1.50
2019-02-11T14:02:55.066Z,1.10
2019-02-11T14:05:23.313Z,1.50
2019-02-11T14:07:51.706Z,1.70
2019-02-11T14:10:20.052Z,1.43
2019-02-11T14:12:48.598Z,1.80
2019-02-11T14:15:20.275Z,2.53
2019-02-11T14:17:46.896Z,1.90
2019-02-11T14:20:17.838Z,1.50
2019-02-11T14:22:46.237Z,1.63
2019-02-11T14:25:14.581Z,1.20
2019-02-11T14:27:42.996Z,1.63
2019-02-11T14:30:16.467Z,2.00
2019-02-11T14:32:44.838Z,1.70
2019-02-11T14:35:13.102Z,1.60
2019-02-11T14:37:42.767Z,1.50
2019-02-11T14:40:11.620Z,1.30
2019-02-11T14:42:39.923Z,1.67
2019-02-11T14:45:19.504Z,1.50
2019-02-11T14:47:47.967Z,1.53
2019-02-11T14:50:16.680Z,1.70
2019-02-11T14:52:46.280Z,4.80
2019-02-11T14:55:14.559Z,1.60
2019-02-11T14:57:42.849Z,2.40
2019-02-11T15:00:14.876Z,2.27
2019-02-11T15:02:43.161Z,1.77
2019-02-11T15:05:11.427Z,1.80
2019-02-11T15:07:39.736Z,1.73
2019-02-11T15:10:10.125Z,1.73
2019-02-11T15:12:38.417Z,1.50
2019-02-11T15:15:08.804Z,1.90
2019-02-11T15:17:37.981Z,1.57
2019-02-11T15:20:09.165Z,1.77
2019-02-11T15:22:37.476Z,1.70
2019-02-11T15:25:10.687Z,1.53
2019-02-11T15:27:38.994Z,1.60
2019-02-11T15:30:10.000Z,1.83
2019-02-11T15:32:38.319Z,1.90
2019-02-11T15:35:08.287Z,1.97
2019-02-11T15:37:36.801Z,1.40
2019-02-11T15:40:08.710Z,1.67
2019-02-11T15:42:37.490Z,1.70
2019-02-11T15:45:08.977Z,1.67
2019-02-11T15:47:37.295Z,1.80
2019-02-11T15:50:08.741Z,1.63
2019-02-11T15:52:37.355Z,2.00
2019-02-11T15:55:08.897Z,1.50
2019-02-11T15:57:37.337Z,1.90
2019-02-11T16:00:11.474Z,1.80
2019-02-11T16:02:39.931Z,1.80
2019-02-11T16:05:15.787Z,2.40
2019-02-11T16:07:39.449Z,2.67
2019-02-11T16:10:10.442Z,2.77
2019-02-11T16:12:38.867Z,2.83
2019-02-11T16:15:09.656Z,2.13
2019-02-11T16:17:38.230Z,2.20
2019-02-11T16:20:09.213Z,2.20
2019-02-11T16:22:37.521Z,2.43
2019-02-11T16:25:08.697Z,3.00
2019-02-11T16:27:38.000Z,2.43
2019-02-11T16:30:15.257Z,2.70
2019-02-11T16:32:43.962Z,3.50
2019-02-11T16:35:14.077Z,2.73
2019-02-11T16:37:42.473Z,2.80
2019-02-11T16:40:16.235Z,2.73
2019-02-11T16:42:44.534Z,2.90
2019-02-11T16:45:12.788Z,2.60
2019-02-11T16:47:41.088Z,2.60
2019-02-11T16:50:11.294Z,3.00
2019-02-11T16:52:39.623Z,2.70
2019-02-11T16:55:09.806Z,2.80
2019-02-11T16:57:38.475Z,2.50
2019-02-11T17:00:18.924Z,2.93
2019-02-11T17:02:47.497Z,3.10
2019-02-11T17:05:16.035Z,3.57
2019-02-11T17:07:44.407Z,3.47
2019-02-11T17:10:15.795Z,3.33
2019-02-11T17:12:44.089Z,2.50
2019-02-11T17:15:17.751Z,2.90
2019-02-11T17:17:46.309Z,2.90
2019-02-11T17:20:16.348Z,3.43
2019-02-11T17:22:44.875Z,3.67
2019-02-11T17:25:13.941Z,3.77
2019-02-11T17:27:42.381Z,4.30
2019-02-11T17:30:19.555Z,3.97
2019-02-11T17:32:47.855Z,4.30
2019-02-11T17:35:16.399Z,4.20
2019-02-11T17:37:44.715Z,5.00
2019-02-11T17:40:13.961Z,4.00
2019-02-11T17:42:42.265Z,4.60
2019-02-11T17:45:16.174Z,4.20
2019-02-11T17:47:44.621Z,3.43
2019-02-11T17:50:13.261Z,3.30
2019-02-11T17:52:41.554Z,2.90
2019-02-11T17:55:12.051Z,3.53
2019-02-11T17:57:40.358Z,3.43
2019-02-11T18:00:19.220Z,3.53
2019-02-11T18:02:47.851Z,3.53
2019-02-11T18:05:17.122Z,3.73
2019-02-11T18:07:45.504Z,4.20
2019-02-11T18:10:13.812Z,3.90
2019-02-11T18:12:42.063Z,3.20
2019-02-11T18:15:10.600Z,3.70
2019-02-11T18:17:38.833Z,3.77
2019-02-11T18:20:08.874Z,3.70
2019-02-11T18:22:37.206Z,3.87
2019-02-11T18:25:08.076Z,3.70
2019-02-11T18:27:36.317Z,4.70
2019-02-11T18:30:08.251Z,4.03
2019-02-11T18:32:36.904Z,3.57
2019-02-11T18:35:08.540Z,4.00
2019-02-11T18:37:36.775Z,4.60
2019-02-11T18:40:07.920Z,3.93
2019-02-11T18:42:36.550Z,3.57
2019-02-11T18:45:07.741Z,4.10
2019-02-11T18:47:37.813Z,4.50
2019-02-11T18:50:09.483Z,3.83
2019-02-11T18:52:38.048Z,3.63
2019-02-11T18:55:08.857Z,3.37
2019-02-11T18:57:37.244Z,4.30
2019-02-11T19:00:08.311Z,4.17
2019-02-11T19:02:36.705Z,4.00
2019-02-11T19:05:05.594Z,3.80
2019-02-11T19:07:33.923Z,3.60
2019-02-11T19:10:02.243Z,5.00
2019-02-11T19:12:30.619Z,5.77
2019-02-11T19:14:58.864Z,4.57
2019-02-11T19:17:27.183Z,5.13
2019-02-11T19:19:55.463Z,4.73
2019-02-11T19:22:23.884Z,3.80
2019-02-11T19:24:52.134Z,4.80
2019-02-11T19:27:20.433Z,10.07
2019-02-11T19:29:49.065Z,7.23
2019-02-11T19:32:17.378Z,20.77
2019-02-11T19:34:45.617Z,6.33
2019-02-11T19:37:13.934Z,4.70
2019-02-11T19:39:42.188Z,3.33
2019-02-11T19:42:10.517Z,3.23
2019-02-11T19:44:38.769Z,2.87
2019-02-11T19:47:07.149Z,2.73
2019-02-11T19:49:35.570Z,3.03
2019-02-11T19:52:03.897Z,2.53
2019-02-11T19:54:32.186Z,2.90
2019-02-11T19:57:01.314Z,3.07
2019-02-11T19:59:29.631Z,3.60
2019-02-11T20:01:57.942Z,3.47
2019-02-11T20:04:26.553Z,4.07
2019-02-11T20:06:55.185Z,3.43
2019-02-11T20:09:32.481Z,3.20
2019-02-11T20:11:53.946Z,2.77
2019-02-11T20:14:22.539Z,2.93
2019-02-11T20:16:50.901Z,2.87
2019-02-11T20:19:19.307Z,2.70
2019-02-11T20:21:47.635Z,2.57
2019-02-11T20:24:15.993Z,2.90
2019-02-11T20:26:44.518Z,2.80
2019-02-11T20:29:12.911Z,2.40
2019-02-11T20:31:41.477Z,3.00
2019-02-11T20:34:09.789Z,2.70
2019-02-11T20:36:38.076Z,3.20
2019-02-11T20:39:06.506Z,2.93
2019-02-11T20:41:34.769Z,3.62
2019-02-11T20:44:03.366Z,2.77
2019-02-11T20:46:31.726Z,2.60
2019-02-11T20:49:00.128Z,2.57
2019-02-11T20:51:28.711Z,2.60
2019-02-11T20:53:57.011Z,2.77
2019-02-11T20:56:25.261Z,2.80
2019-02-11T20:58:53.859Z,2.47
2019-02-11T21:01:22.101Z,3.20
2019-02-11T21:03:50.731Z,3.13
2019-02-11T21:06:19.221Z,2.77
2019-02-11T21:08:47.549Z,3.20
2019-02-11T21:11:16.163Z,2.57
2019-02-11T21:13:44.464Z,2.90
2019-02-11T21:16:12.725Z,2.57
2019-02-11T21:18:41.123Z,3.00
2019-02-11T21:21:09.390Z,2.53
2019-02-11T21:23:37.684Z,2.97
2019-02-11T21:26:05.923Z,3.30
2019-02-11T21:28:34.560Z,3.80
2019-02-11T21:31:02.816Z,3.97
2019-02-11T21:33:31.372Z,4.00
2019-02-11T21:35:59.635Z,3.57
2019-02-11T21:38:28.245Z,3.00
2019-02-11T21:40:56.503Z,2.90
2019-02-11T21:43:25.049Z,3.07
2019-02-11T21:45:53.391Z,3.70
2019-02-11T21:48:23.010Z,3.53
2019-02-11T21:50:51.526Z,2.87
2019-02-11T21:53:20.250Z,3.50
2019-02-11T21:55:48.763Z,2.90
2019-02-11T21:58:17.085Z,3.60
2019-02-11T22:00:45.682Z,3.37
2019-02-11T22:03:14.488Z,3.30
2019-02-11T22:05:42.765Z,3.57
2019-02-11T22:08:11.127Z,4.00
2019-02-11T22:10:39.383Z,4.67
2019-02-11T22:13:07.996Z,3.63
2019-02-11T22:15:36.271Z,4.00
2019-02-11T22:18:04.547Z,3.83
2019-02-11T22:20:34.677Z,3.70
2019-02-11T22:23:03.062Z,4.07
2019-02-11T22:25:31.359Z,3.50
2019-02-11T22:27:59.672Z,3.57
2019-02-11T22:30:27.973Z,3.30
2019-02-11T22:32:56.285Z,3.93
2019-02-11T22:35:24.553Z,3.67
2019-02-11T22:37:53.650Z,3.40
2019-02-11T22:40:21.940Z,3.70
2019-02-11T22:42:50.204Z,3.40
2019-02-11T22:45:23.768Z,3.47
2019-02-11T22:47:52.043Z,3.37
2019-02-11T22:50:20.335Z,3.37
2019-02-11T22:52:48.819Z,3.30
2019-02-11T22:55:17.172Z,4.10
2019-02-11T22:57:45.418Z,3.53
2019-02-11T23:00:49.355Z,3.63
2019-02-11T23:03:17.593Z,3.53
2019-02-11T23:05:45.884Z,3.43
2019-02-11T23:08:14.445Z,3.67
2019-02-11T23:10:43.070Z,4.17
2019-02-11T23:13:11.339Z,3.63
2019-02-11T23:15:39.943Z,3.90
2019-02-11T23:18:08.467Z,3.67
2019-02-11T23:20:36.989Z,3.70
2019-02-11T23:23:05.242Z,3.93
2019-02-11T23:25:33.782Z,3.57
2019-02-11T23:28:02.044Z,3.53
2019-02-11T23:30:30.537Z,3.33
2019-02-11T23:32:58.842Z,3.90
2019-02-11T23:35:27.135Z,3.87
2019-02-11T23:37:55.763Z,3.63
2019-02-11T23:40:24.027Z,3.20
2019-02-11T23:42:52.257Z,3.47
2019-02-11T23:45:20.894Z,3.87
2019-02-11T23:47:49.146Z,3.67
2019-02-11T23:50:17.419Z,3.93
2019-02-11T23:52:45.672Z,4.03
2019-02-11T23:55:14.190Z,2.87
2019-02-11T23:57:42.425Z,3.67
